To NAV CANADA Home Page Login to a new session Search on AWWS site Feedback and Comments Disclaimer Vers la page française équivalente Tips FAQ What's new on the site To the Forecasts and Observations / NOTAM section To "File a Flight Plan" website Publications and other links Update of the User's profile FIC Telephone Numbers My Weather Data Folder Route Weather Data Regional Weather Data Local Weather Data To the Forecasts and Observations / NOTAM section
Request Generated 04/18/2014 at 20:59:11 UTC . Weather information available at that time is displayed.

METAR/TAF

SWIFT CURRENT/SK    (show WxCam)

SPECI CYYN 182038Z AUTO 16014KT 9SM SCT011 BKN030 OVC042 06/05 A2958
RMK SLP036=
SPECI CYYN 182008Z AUTO 16012G17KT 9SM OVC011 06/05 A2960 RMK SLP041=
METAR CYYN 182000Z AUTO 15014KT 9SM OVC009 06/04 A2959 RMK MAX WND
15017KT AT 1922Z SLP041=
SPECI CYYN 181920Z AUTO 15016KT 9SM BKN009 BKN060 OVC100 05/04 A2960
RMK SLP042=
SPECI CYYN 181906Z AUTO 13015KT 9SM SCT007 OVC060 05/04 A2959 RMK
SLP039=
METAR CYYN 181900Z AUTO 14015G20KT 9SM -RA SCT007 OVC060 05/04 A2960
RMK MAX WND 15017KT AT 1840Z PCPN 0.8MM PAST HR SLP042=
SPECI CYYN 181843Z AUTO 15017KT 8SM -RA SCT007 BKN043 OVC055 05/04
A2961 RMK MAX WND 15017KT AT 1840Z PCPN 0.5MM PAST HR SLP046=
SPECI CYYN 181803Z AUTO 15012G18KT 8SM -RA BKN007 BKN045 OVC050 05/04
A2961 RMK SLP047=
METAR CYYN 181800Z AUTO 15012G18KT 8SM -RA SCT007 OVC045 05/04 A2961
RMK PCPN 1.0MM PAST HR SLP048=

TAF AMD CYYN 181832Z 1818/1906 14015G25KT P6SM SCT040 OVC070 TEMPO
1818/1821 5SM -SHRA BR BKN007 BKN030
FM182100 18015G25KT P6SM SCT060 BKN120 TEMPO 1821/1906 5SM -RA BR
SCT007 OVC040
BECMG 1822/1824 23018G28KT
RMK FCST BASED ON AUTO OBS. NXT FCST BY 190000Z=
Your time UTC time
Weather data provided by Environment Canada and NAV CANADA